createdAt,value
2019-04-29T00:01:58.131Z,14
2019-04-29T00:07:00.347Z,14
2019-04-29T00:12:02.826Z,15
2019-04-29T00:17:05.289Z,13
2019-04-29T00:22:07.733Z,16
2019-04-29T00:27:10.126Z,16
2019-04-29T00:32:12.977Z,15
2019-04-29T00:37:14.990Z,16
2019-04-29T00:42:17.578Z,14
2019-04-29T00:47:19.939Z,13
2019-04-29T00:52:22.329Z,14
2019-04-29T00:57:24.762Z,13
2019-04-29T01:02:27.267Z,16
2019-04-29T01:07:29.851Z,14
2019-04-29T01:12:32.176Z,16
2019-04-29T01:17:34.522Z,14
2019-04-29T01:22:36.940Z,18
2019-04-29T01:27:39.406Z,14
2019-04-29T01:32:41.842Z,14
2019-04-29T01:37:44.368Z,15
2019-04-29T01:42:46.824Z,16
2019-04-29T01:47:49.153Z,17
2019-04-29T01:52:51.732Z,15
2019-04-29T01:57:54.034Z,14
2019-04-29T02:02:56.686Z,18
2019-04-29T02:07:59.094Z,15
2019-04-29T02:13:01.381Z,17
2019-04-29T02:18:03.952Z,16
2019-04-29T02:23:06.260Z,16
2019-04-29T02:28:08.770Z,17
2019-04-29T02:33:11.119Z,20
2019-04-29T02:38:13.609Z,17
2019-04-29T02:43:16.051Z,17
2019-04-29T02:48:18.479Z,17
2019-04-29T02:53:20.922Z,17
2019-04-29T02:58:23.352Z,16
2019-04-29T03:03:25.807Z,18
2019-04-29T03:08:28.208Z,19
2019-04-29T03:13:30.713Z,16
2019-04-29T03:18:33.089Z,22
2019-04-29T03:23:35.631Z,20
2019-04-29T03:28:38.004Z,22
2019-04-29T03:38:42.967Z,26
2019-04-29T03:43:45.355Z,25
2019-04-29T03:48:47.752Z,26
2019-04-29T03:53:50.310Z,26
2019-04-29T03:58:52.617Z,27
2019-04-29T04:03:55.212Z,32
2019-04-29T04:09:05.776Z,37
2019-04-29T04:13:59.942Z,31
2019-04-29T04:19:02.399Z,34
2019-04-29T04:24:04.845Z,36
2019-04-29T04:29:07.313Z,34
2019-04-29T04:34:09.715Z,30
2019-04-29T04:39:12.180Z,24
2019-04-29T04:44:14.600Z,27
2019-04-29T04:54:19.570Z,20
2019-04-29T04:59:22.167Z,24
2019-04-29T05:04:24.382Z,21
2019-04-29T05:09:26.828Z,22
2019-04-29T05:14:29.272Z,24
2019-04-29T05:19:31.676Z,23
2019-04-29T05:24:34.139Z,21
2019-04-29T05:29:36.608Z,21
2019-04-29T05:39:41.471Z,22
2019-04-29T05:44:43.873Z,21
2019-04-29T05:49:46.344Z,23
2019-04-29T05:54:48.774Z,23
2019-04-29T05:59:51.225Z,19
2019-04-29T06:04:53.975Z,18
2019-04-29T06:09:56.420Z,16
2019-04-29T06:14:58.533Z,16
2019-04-29T06:20:01.026Z,16
2019-04-29T06:25:03.423Z,15
2019-04-29T06:30:05.933Z,13
2019-04-29T06:35:10.515Z,14
2019-04-29T06:40:10.857Z,14
2019-04-29T06:45:13.173Z,20
2019-04-29T06:50:15.600Z,16
2019-04-29T06:55:18.096Z,18
2019-04-29T07:00:22.108Z,18
2019-04-29T07:05:22.941Z,18
2019-04-29T07:10:26.933Z,18
2019-04-29T07:15:27.879Z,15
2019-04-29T07:20:32.353Z,17
2019-04-29T07:25:32.799Z,16
2019-04-29T07:30:37.530Z,16
2019-04-29T07:35:38.215Z,16
2019-04-29T07:40:43.254Z,17
2019-04-29T07:45:44.218Z,20
2019-04-29T07:50:45.151Z,22
2019-04-29T07:55:47.381Z,20
2019-04-29T08:00:50.005Z,20
2019-04-29T08:05:52.360Z,20
2019-04-29T08:10:56.646Z,21
2019-04-29T08:15:57.117Z,19
2019-04-29T08:20:59.668Z,26
2019-04-29T08:31:04.444Z,20
2019-04-29T08:41:09.409Z,20
2019-04-29T08:46:11.775Z,19
2019-04-29T08:51:14.238Z,20
2019-04-29T08:56:16.770Z,18
2019-04-29T09:01:19.125Z,18
2019-04-29T09:06:22.777Z,18
2019-04-29T09:11:23.952Z,14
2019-04-29T09:16:26.378Z,11
2019-04-29T09:21:28.945Z,14
2019-04-29T09:26:31.257Z,15
2019-04-29T09:31:33.700Z,14
2019-04-29T09:36:36.434Z,14
2019-04-29T09:41:38.949Z,16
2019-04-29T09:51:43.498Z,15
2019-04-29T09:56:45.994Z,21
2019-04-29T10:01:50.380Z,22
2019-04-29T10:06:50.773Z,21
2019-04-29T10:11:53.220Z,19
2019-04-29T10:16:55.667Z,19
2019-04-29T10:21:58.128Z,20
2019-04-29T10:27:00.584Z,23
2019-04-29T10:32:06.700Z,18
2019-04-29T10:42:07.912Z,17
2019-04-29T10:47:10.351Z,23
2019-04-29T10:52:12.772Z,27
2019-04-29T10:57:15.938Z,15
2019-04-29T11:02:17.639Z,14
2019-04-29T11:07:26.295Z,11
2019-04-29T11:12:22.489Z,13
2019-04-29T11:17:24.926Z,13
2019-04-29T11:22:27.405Z,10
2019-04-29T11:27:29.810Z,11
2019-04-29T11:32:32.306Z,10
2019-04-29T11:37:34.752Z,9
2019-04-29T11:42:41.567Z,7
2019-04-29T11:47:39.586Z,8
2019-04-29T11:52:42.182Z,9
2019-04-29T11:57:44.476Z,8
2019-04-29T12:07:49.540Z,10
2019-04-29T12:12:52.140Z,10
2019-04-29T12:17:54.272Z,12
2019-04-29T12:22:56.687Z,13
2019-04-29T12:28:01.767Z,12
2019-04-29T12:33:03.073Z,12
2019-04-29T12:38:05.496Z,12
2019-04-29T12:43:06.546Z,13
2019-04-29T12:48:09.177Z,13
2019-04-29T12:53:11.506Z,11
2019-04-29T12:58:13.762Z,13
2019-04-29T13:03:16.175Z,14
2019-04-29T13:08:18.623Z,15
2019-04-29T13:13:21.961Z,16
2019-04-29T13:18:23.799Z,13
2019-04-29T13:23:34.614Z,14
2019-04-29T13:28:30.074Z,13
2019-04-29T13:33:30.813Z,11
2019-04-29T13:38:33.283Z,10
2019-04-29T13:43:35.865Z,10
2019-04-29T13:48:54.568Z,9
2019-04-29T13:53:40.631Z,7
2019-04-29T13:58:43.044Z,7
2019-04-29T14:03:46.758Z,7
2019-04-29T14:08:47.937Z,7
2019-04-29T14:13:50.495Z,5
2019-04-29T14:18:53.313Z,6
2019-04-29T14:23:55.280Z,6
2019-04-29T14:28:57.973Z,5
2019-04-29T14:34:00.516Z,5
2019-04-29T14:39:02.612Z,6
2019-04-29T14:44:05.033Z,5
2019-04-29T14:49:07.491Z,5
2019-04-29T14:54:09.867Z,4
2019-04-29T14:59:12.446Z,4
2019-04-29T15:04:18.201Z,4
2019-04-29T15:09:19.632Z,4
2019-04-29T15:14:23.634Z,4
2019-04-29T15:19:22.088Z,4
2019-04-29T15:24:27.257Z,4
2019-04-29T15:29:27.294Z,4
2019-04-29T15:34:29.393Z,5
2019-04-29T15:39:31.848Z,3
2019-04-29T15:44:34.311Z,3
2019-04-29T15:49:36.843Z,3
2019-04-29T15:54:39.170Z,3
2019-04-29T15:59:48.785Z,3
2019-04-29T16:04:47.201Z,3
2019-04-29T16:09:51.550Z,3
2019-04-29T16:14:49.288Z,3
2019-04-29T16:19:51.482Z,3
2019-04-29T16:24:59.148Z,4
2019-04-29T16:29:56.657Z,4
2019-04-29T16:34:58.811Z,5
2019-04-29T16:40:01.430Z,7
2019-04-29T16:45:06.022Z,9
2019-04-29T16:50:06.150Z,10
2019-04-29T16:55:08.447Z,14
2019-04-29T17:05:13.827Z,19
2019-04-29T17:10:15.837Z,19
2019-04-29T17:15:24.956Z,23
2019-04-29T17:20:20.688Z,25
2019-04-29T17:25:23.248Z,29
2019-04-29T17:30:25.843Z,33
2019-04-29T17:35:28.036Z,35
2019-04-29T17:40:30.439Z,42
2019-04-29T17:45:33.133Z,43
2019-04-29T17:50:38.446Z,46
2019-04-29T17:55:40.676Z,40
2019-04-29T18:00:43.584Z,41
2019-04-29T18:05:52.823Z,51
2019-04-29T18:10:45.774Z,51
2019-04-29T18:16:00.353Z,60
2019-04-29T18:20:49.966Z,65
2019-04-29T18:25:52.492Z,64
2019-04-29T18:30:57.789Z,72
2019-04-29T18:36:03.557Z,70
2019-04-29T18:40:59.753Z,81
2019-04-29T18:46:05.855Z,94
2019-04-29T18:51:05.696Z,100
2019-04-29T18:56:07.379Z,159
2019-04-29T19:01:09.872Z,140
2019-04-29T19:06:11.976Z,163
2019-04-29T19:11:15.248Z,122
2019-04-29T19:16:21.340Z,177
2019-04-29T19:21:19.280Z,149
2019-04-29T19:26:22.247Z,170
2019-04-29T19:31:25.155Z,212
2019-04-29T19:36:26.620Z,362
2019-04-29T19:41:29.054Z,141
2019-04-29T19:46:37.238Z,112
2019-04-29T19:51:35.085Z,120
2019-04-29T19:56:36.412Z,101
2019-04-29T20:01:39.215Z,95
2019-04-29T20:06:44.476Z,80
2019-04-29T20:11:45.747Z,71
2019-04-29T20:16:54.753Z,60
2019-04-29T20:21:48.726Z,52
2019-04-29T20:26:51.157Z,60
2019-04-29T20:31:56.281Z,67
2019-04-29T20:36:56.512Z,115
2019-04-29T20:42:00.911Z,159
2019-04-29T20:47:16.366Z,451
2019-04-29T20:52:05.253Z,605
2019-04-29T20:57:17.006Z,573
2019-04-29T21:02:12.348Z,543
2019-04-29T21:07:10.894Z,485
2019-04-29T21:12:12.983Z,170
2019-04-29T21:17:27.840Z,114
2019-04-29T21:22:21.780Z,90
2019-04-29T21:27:22.270Z,90
2019-04-29T21:32:22.777Z,136
2019-04-29T21:37:25.873Z,131
2019-04-29T21:42:35.049Z,145
2019-04-29T21:47:41.291Z,144
2019-04-29T21:52:32.511Z,149
2019-04-29T21:57:34.959Z,139
2019-04-29T22:02:37.475Z,146
2019-04-29T22:07:43.911Z,134
2019-04-29T22:12:42.609Z,137
2019-04-29T22:17:54.293Z,135
2019-04-29T22:22:47.749Z,133
2019-04-29T22:27:49.596Z,128
2019-04-29T22:32:56.020Z,128
2019-04-29T22:37:55.489Z,125
2019-04-29T22:43:04.564Z,117
2019-04-29T22:48:11.955Z,107
2019-04-29T22:53:05.847Z,109
2019-04-29T22:58:05.853Z,113
2019-04-29T23:03:06.763Z,104
2019-04-29T23:08:09.212Z,101
2019-04-29T23:13:11.895Z,96
2019-04-29T23:18:24.247Z,89
2019-04-29T23:23:16.430Z,94
2019-04-29T23:28:22.385Z,88
2019-04-29T23:33:23.897Z,83
2019-04-29T23:38:25.523Z,76
2019-04-29T23:43:28.335Z,80
2019-04-29T23:48:38.529Z,74
2019-04-29T23:53:31.164Z,69
2019-04-29T23:58:37.063Z,78
